DW8790 Maspalomas ES current weather conditions

sailwx.info

Wind from 076

Air temperature 17.8° C
Dewpoint 12.4° C

Last reported at 2015-Apr-19 03:50 UTC.
Time now 2015-Apr-19 04:38 UTC

Location: N 27°46' W 015°34'.
View on Google Maps.

See reports from other nearby stations

  
Tides and Currents Weather Stations Pressure Air Temp Water Temp Dewpoint Dewpoint Depression Visibility Wind Speed Wind Dir Waves Ship Positions
date/time (UTC)wind fromknots sea level pressurealtimeterstation pressurevisibilityair tempwater tempwave heightnotes
2015-Apr-19 03:50 076 17.8
2015-Apr-19 03:45 076 17.8
2015-Apr-19 03:40 109 17.2
2015-Apr-19 03:35 109 17.8
2015-Apr-19 03:30 109 17.8
2015-Apr-19 03:25 129 2 gusting 2 17.8
2015-Apr-19 03:20 101 3 gusting 5 17.8
2015-Apr-19 03:15 097 3 gusting 5 17.8
2015-Apr-19 03:10 095 3 gusting 5 17.8
2015-Apr-19 03:05 088 1 gusting 4 17.8
2015-Apr-19 03:00 105 17.8
2015-Apr-19 02:55 105 17.8
2015-Apr-19 02:50 105 0 gusting 2 17.8
2015-Apr-19 02:45 105 1 gusting 4 17.8
2015-Apr-19 02:40 110 4 gusting 6 17.8
2015-Apr-19 02:35 102 2 gusting 5 17.8
2015-Apr-19 02:30 130 1 gusting 2 17.8
2015-Apr-19 02:25 265 2 gusting 4 18.3
2015-Apr-19 02:20 233 2 gusting 4 17.8
2015-Apr-19 02:15 244 1 gusting 2 18.3
2015-Apr-19 02:10 036 17.8
2015-Apr-19 02:05 175 18.3
2015-Apr-19 02:00 160 2 gusting 5 17.8
2015-Apr-19 01:55 090 2 gusting 5 17.8
2015-Apr-19 01:50 085 2 gusting 7 17.8
2015-Apr-19 01:45 118 5 gusting 7 18.3
2015-Apr-19 01:40 128 2 gusting 5 18.3
2015-Apr-19 01:35 209 18.3
2015-Apr-19 01:30 224 0 gusting 2 18.3
2015-Apr-19 01:25 245 2 gusting 6 18.3
2015-Apr-19 01:20 253 3 gusting 6 18.3
2015-Apr-19 01:15 234 2 gusting 4 18.3
2015-Apr-19 01:10 261 5 gusting 10 18.3
2015-Apr-19 01:05 341 3 gusting 6 18.3
2015-Apr-19 01:00 267 1 gusting 6 18.3
2015-Apr-19 00:55 022 1 gusting 6 18.3
2015-Apr-19 00:50 059 1 gusting 4 18.3
2015-Apr-19 00:45 087 3 gusting 7 18.3
2015-Apr-19 00:40 088 4 gusting 10 18.3
2015-Apr-19 00:35 121 4 gusting 8 18.3
2015-Apr-19 00:30 094 6 gusting 10 18.3
2015-Apr-19 00:25 112 3 gusting 6 18.3
2015-Apr-19 00:20 126 2 gusting 5 18.3
2015-Apr-19 00:15 210 2 gusting 4 18.3
2015-Apr-19 00:10 276 2 gusting 5 18.3
2015-Apr-19 00:05 278 2 gusting 5 18.3
2015-Apr-19 00:00 216 0 gusting 2 18.3
2015-Apr-18 23:55 197 4 gusting 6 18.3
2015-Apr-18 23:50 232 2 gusting 4 18.3
2015-Apr-18 23:45 130 1 gusting 2 18.3
2015-Apr-18 23:40 130 0 gusting 1 18.3
2015-Apr-18 23:35 130 18.3
2015-Apr-18 23:30 130 1 gusting 2 18.3
2015-Apr-18 23:25 113 2 gusting 4 18.3
2015-Apr-18 23:20 149 3 gusting 5 18.3
2015-Apr-18 23:15 103 1 gusting 2 18.3
2015-Apr-18 23:10 089 0 gusting 4 18.3
2015-Apr-18 23:05 087 2 gusting 5 18.3
2015-Apr-18 23:00 104 1 gusting 4 18.9
2015-Apr-18 22:55 199 1 gusting 4 18.9
2015-Apr-18 22:50 220 1 gusting 2 18.9
2015-Apr-18 22:45 220 0 gusting 4 18.9
2015-Apr-18 22:40 220 18.9
2015-Apr-18 22:35 220 1 gusting 2 18.9
2015-Apr-18 22:30 123 1 gusting 2 18.9
2015-Apr-18 22:25 158 0 gusting 4 18.9
2015-Apr-18 22:20 266 2 gusting 4 18.9
2015-Apr-18 22:15 254 2 gusting 4 18.9
2015-Apr-18 22:10 276 4 gusting 5 18.9
2015-Apr-18 22:05 283 1 gusting 5 18.9
2015-Apr-18 22:00 281 1 gusting 4 18.9
2015-Apr-18 21:55 281 2 gusting 4 18.9
2015-Apr-18 21:50 304 2 gusting 4 18.9
2015-Apr-18 21:45 286 2 gusting 5 18.9
2015-Apr-18 21:40 295 1 gusting 6 18.9
2015-Apr-18 21:35 280 4 gusting 6 18.9
2015-Apr-18 21:30 309 3 gusting 6 18.9
2015-Apr-18 21:20 296 5 gusting 7 19.4
2015-Apr-18 21:15 270 4 gusting 6 19.4
2015-Apr-18 21:10 286 4 gusting 6 19.4
2015-Apr-18 21:05 295 5 gusting 6 19.4
2015-Apr-18 21:00 275 1 gusting 4 19.4
2015-Apr-18 20:55 265 0 gusting 4 19.4
2015-Apr-18 20:50 207 0 gusting 2 19.4
2015-Apr-18 20:45 082 19.4
2015-Apr-18 20:40 082 19.4
2015-Apr-18 20:35 082 0 gusting 4 19.4
2015-Apr-18 20:30 082 1 gusting 4 19.4
2015-Apr-18 20:25 105 2 gusting 6 19.4
2015-Apr-18 20:20 098 4 gusting 6 19.4
2015-Apr-18 20:15 098 2 gusting 6 19.4
2015-Apr-18 20:10 109 1 gusting 4 19.4
2015-Apr-18 20:05 113 0 gusting 4 19.4
2015-Apr-18 20:00 110 2 gusting 5 19.4
2015-Apr-18 19:55 107 3 gusting 6 19.4
2015-Apr-18 19:50 094 3 gusting 6 19.4
2015-Apr-18 19:45 100 2 gusting 6 19.4
2015-Apr-18 19:40 105 4 gusting 6 19.4
2015-Apr-18 19:35 107 4 gusting 6 20.0
2015-Apr-18 19:30 105 5 gusting 10 20.0
2015-Apr-18 19:25 096 6 gusting 10 20.0
2015-Apr-18 19:20 092 6 gusting 10 20.0
2015-Apr-18 19:15 088 4 gusting 7 20.0
2015-Apr-18 19:10 097 6 gusting 7 20.0
2015-Apr-18 19:05 109 6 gusting 8 20.6
2015-Apr-18 19:00 110 5 gusting 7 20.6
2015-Apr-18 18:55 096 3 gusting 6 20.6
2015-Apr-18 18:50 105 4 gusting 6 20.6
2015-Apr-18 18:45 110 5 gusting 7 20.6
2015-Apr-18 18:40 150 4 gusting 8 20.6
2015-Apr-18 18:35 128 6 gusting 10 20.6
2015-Apr-18 18:30 114 6 gusting 8 20.6
2015-Apr-18 18:25 085 5 gusting 7 20.6
2015-Apr-18 18:20 124 5 gusting 8 20.6
2015-Apr-18 18:15 128 5 gusting 10 20.6
2015-Apr-18 18:10 112 7 gusting 13 20.6
2015-Apr-18 18:05 100 6 gusting 11 21.1
2015-Apr-18 18:00 103 7 gusting 13 21.1
2015-Apr-18 17:55 109 7 gusting 11 21.1
2015-Apr-18 17:50 125 7 gusting 13 21.1
2015-Apr-18 17:45 103 10 gusting 14 21.1
2015-Apr-18 17:40 113 7 gusting 13 21.1
2015-Apr-18 17:35 108 8 gusting 13 21.1
2015-Apr-18 17:30 105 7 gusting 13 21.1
2015-Apr-18 17:25 125 7 gusting 13 21.7
2015-Apr-18 17:20 111 8 gusting 14 21.7
2015-Apr-18 17:15 096 10 gusting 13 21.7
2015-Apr-18 17:10 099 10 gusting 15 21.7
2015-Apr-18 17:05 104 8 gusting 13 21.7
2015-Apr-18 17:00 124 12 gusting 17 21.1
2015-Apr-18 16:55 108 9 gusting 13 21.7
2015-Apr-18 16:50 096 8 gusting 13 21.7
2015-Apr-18 16:45 112 10 gusting 14 22.2
2015-Apr-18 16:40 104 9 gusting 14 21.7
2015-Apr-18 16:35 098 11 gusting 14 21.7
2015-Apr-18 16:30 098 12 gusting 17 21.7
2015-Apr-18 16:25 112 13 gusting 17 21.7
2015-Apr-18 16:20 112 12 gusting 17 22.2
2015-Apr-18 16:15 096 10 gusting 17 22.2
2015-Apr-18 16:10 122 13 gusting 18 22.2
2015-Apr-18 16:05 100 2 gusting 14 22.2
2015-Apr-18 16:00 105 8 gusting 17 21.7
2015-Apr-18 15:55 047 1 gusting 12 21.7
2015-Apr-18 15:50 104 7 gusting 14 21.7
2015-Apr-18 15:45 065 5 gusting 14 21.7
2015-Apr-18 15:40 118 9 gusting 13 21.7
2015-Apr-18 15:35 068 5 gusting 8 21.7
2015-Apr-18 15:30 046 7 gusting 13 21.7
2015-Apr-18 15:25 127 5 gusting 8 21.7
2015-Apr-18 15:20 345 5 gusting 10 21.7
2015-Apr-18 15:15 242 3 gusting 6 21.7
2015-Apr-18 15:10 250 4 gusting 7 21.7
2015-Apr-18 15:05 210 4 gusting 6 21.7
2015-Apr-18 15:00 203 3 gusting 7 21.1
2015-Apr-18 14:55 227 4 gusting 7 21.1
2015-Apr-18 14:50 236 2 gusting 8 21.1
2015-Apr-18 14:45 172 3 gusting 6 21.1
2015-Apr-18 14:40 193 4 gusting 6 21.1
2015-Apr-18 14:35 206 0 gusting 7 21.1
2015-Apr-18 14:30 251 0 gusting 6 21.1
2015-Apr-18 14:25 212 2 gusting 10 21.1
2015-Apr-18 14:20 235 5 gusting 10 21.1
2015-Apr-18 14:15 159 4 gusting 10 21.7
2015-Apr-18 14:10 193 4 gusting 8 21.7
2015-Apr-18 14:05 227 5 gusting 10 21.7
2015-Apr-18 14:00 261 6 gusting 11 21.7
2015-Apr-18 13:55 232 6 gusting 11 21.7
2015-Apr-18 13:50 231 6 gusting 10 21.7
2015-Apr-18 13:45 219 6 gusting 11 21.7
2015-Apr-18 13:40 246 7 gusting 13 21.7
2015-Apr-18 13:35 258 7 gusting 12 21.7
2015-Apr-18 13:30 216 7 gusting 14 21.7
2015-Apr-18 13:25 239 7 gusting 13 21.7
2015-Apr-18 13:20 253 7 gusting 13 21.7
2015-Apr-18 13:15 254 7 gusting 13 21.7
2015-Apr-18 13:10 225 5 gusting 12 21.7
2015-Apr-18 13:05 250 7 gusting 11 21.7
2015-Apr-18 13:00 230 4 gusting 10 21.7
2015-Apr-18 12:55 232 5 gusting 11 21.7
2015-Apr-18 12:50 201 6 gusting 10 21.7
2015-Apr-18 12:45 256 6 gusting 10 21.7
2015-Apr-18 12:40 226 5 gusting 7 21.7
2015-Apr-18 12:35 213 5 gusting 10 21.7
2015-Apr-18 12:30 229 3 gusting 10 21.7
2015-Apr-18 12:25 234 8 gusting 11 21.7
2015-Apr-18 12:20 181 5 gusting 10 21.7
2015-Apr-18 12:15 242 5 gusting 11 21.7
2015-Apr-18 12:10 235 5 gusting 10 21.7
2015-Apr-18 12:05 205 6 gusting 10 21.7
2015-Apr-18 12:00 255 4 gusting 7 21.7
2015-Apr-18 11:55 237 4 gusting 7 21.7
2015-Apr-18 11:50 267 5 gusting 10 21.7
2015-Apr-18 11:45 258 6 gusting 10 21.7
2015-Apr-18 11:40 218 5 gusting 10 21.7
2015-Apr-18 11:35 237 6 gusting 10 21.7
2015-Apr-18 11:30 249 6 gusting 10 21.1
2015-Apr-18 11:25 275 7 gusting 10 21.1
2015-Apr-18 11:20 233 6 gusting 7 21.1
2015-Apr-18 11:15 266 5 gusting 8 21.7
2015-Apr-18 11:10 255 4 gusting 6 21.1
2015-Apr-18 11:05 244 5 gusting 7 21.1
2015-Apr-18 11:00 251 4 gusting 8 20.6
2015-Apr-18 10:55 257 6 gusting 8 20.6
2015-Apr-18 10:50 240 6 gusting 10 20.6
2015-Apr-18 10:45 251 6 gusting 10 20.6
2015-Apr-18 10:40 240 6 gusting 10 20.6
2015-Apr-18 10:35 241 5 gusting 8 20.6
2015-Apr-18 10:30 241 6 gusting 10 20.6
2015-Apr-18 10:25 252 4 gusting 6 20.6
2015-Apr-18 10:20 243 4 gusting 8 20.6
2015-Apr-18 10:15 214 2 gusting 6 20.0
2015-Apr-18 10:10 234 3 gusting 6 20.0
2015-Apr-18 10:05 260 6 gusting 7 20.6
2015-Apr-18 10:00 284 4 gusting 7 21.1
2015-Apr-18 09:55 246 2 gusting 6 21.1
2015-Apr-18 09:50 240 2 gusting 6 21.1
2015-Apr-18 09:45 197 0 gusting 2 21.1
2015-Apr-18 09:40 229 0 gusting 2 21.1
2015-Apr-18 09:35 275 1 gusting 4 20.6
2015-Apr-18 09:30 271 1 gusting 4 20.6
2015-Apr-18 09:20 200 2 gusting 4 20.0
2015-Apr-18 09:15 250 4 gusting 6 20.0
2015-Apr-18 09:10 249 0 gusting 4 20.0
2015-Apr-18 09:05 250 3 gusting 5 20.6
2015-Apr-18 09:00 158 20.6
2015-Apr-18 08:55 149 0 gusting 2 20.6
2015-Apr-18 08:50 232 0 gusting 2 20.6
2015-Apr-18 08:45 145 1 gusting 2 20.0
2015-Apr-18 08:40 036 1 gusting 2 20.0
2015-Apr-18 08:35 036 20.0
2015-Apr-18 08:30 036 19.4
2015-Apr-18 08:25 036 19.4
2015-Apr-18 08:20 036 19.4
2015-Apr-18 08:15 036 18.9
2015-Apr-18 08:10 036 18.9
2015-Apr-18 08:05 036 18.9
2015-Apr-18 08:00 036 18.3
2015-Apr-18 07:55 036 18.3
2015-Apr-18 07:50 036 17.8
2015-Apr-18 07:45 036 17.8
2015-Apr-18 07:40 036 17.2
2015-Apr-18 07:35 036 16.7
2015-Apr-18 07:30 036 0 gusting 2 16.7
2015-Apr-18 07:25 019 1 gusting 4 16.1
2015-Apr-18 07:20 012 3 gusting 6 16.1
2015-Apr-18 07:15 351 4 gusting 6 15.6
2015-Apr-18 07:10 356 2 gusting 4 15.6
2015-Apr-18 07:05 338 2 gusting 5 15.0
2015-Apr-18 07:00 338 2 gusting 4 15.0
2015-Apr-18 06:55 15.0
2015-Apr-18 06:50 306 2 gusting 2 15.0
2015-Apr-18 06:45 294 2 gusting 2 15.0
2015-Apr-18 06:40 024 15.6
2015-Apr-18 06:35 024 0 gusting 2 15.6
2015-Apr-18 06:30 024 1 gusting 2 15.6
2015-Apr-18 06:25 015 3 gusting 6 15.6
2015-Apr-18 06:20 001 5 gusting 6 15.6
2015-Apr-18 06:15 354 2 gusting 6 15.6
2015-Apr-18 06:10 349 3 gusting 6 15.6
2015-Apr-18 06:05 341 4 gusting 6 15.6
2015-Apr-18 06:00 338 4 gusting 5 15.6
2015-Apr-18 05:55 348 3 gusting 5 15.6
2015-Apr-18 05:50 346 2 gusting 5 15.6
2015-Apr-18 05:45 350 2 gusting 4 15.6
2015-Apr-18 05:40 355 1 gusting 2 15.6
2015-Apr-18 05:35 355 1 gusting 2 15.6
2015-Apr-18 05:30 355 2 gusting 4 15.6
2015-Apr-18 05:25 356 3 gusting 5 15.6
2015-Apr-18 05:20 346 4 gusting 6 15.6
2015-Apr-18 05:15 352 2 gusting 4 15.0
2015-Apr-18 05:10 344 2 gusting 5 15.0
2015-Apr-18 05:05 306 2 gusting 2 15.0
2015-Apr-18 05:00 105 15.6
2015-Apr-18 04:55 105 1 gusting 2 15.6
2015-Apr-18 04:50 355 0 gusting 2 15.6
2015-Apr-18 04:45 355 15.6
2015-Apr-18 04:40 355 0 gusting 2 15.6
2015-Apr-18 04:35 355 1 gusting 2 15.6
2015-Apr-18 04:30 355 2 gusting 2 15.6
2015-Apr-18 04:25 355 2 gusting 4 15.6
2015-Apr-18 04:20 292 1 gusting 2 15.6
2015-Apr-18 04:15 292 1 gusting 2 15.6
2015-Apr-18 04:10 292 1 gusting 2 15.6
2015-Apr-18 04:05 292 1 gusting 2 15.6
2015-Apr-18 04:00 292 2 gusting 2 15.6
2015-Apr-18 03:55 209 1 gusting 2 15.6
2015-Apr-18 03:50 209 15.6
2015-Apr-18 03:45 209 15.6
2015-Apr-18 03:40 209 15.6
2015-Apr-18 03:35 209 0 gusting 2 15.6
2015-Apr-18 03:30 209 1 gusting 2 15.6
2015-Apr-18 03:25 209 1 gusting 2 15.6
2015-Apr-18 03:20 209 1 gusting 2 15.6
2015-Apr-18 03:15 209 1 gusting 2 15.6
2015-Apr-18 03:10 209 15.6
2015-Apr-18 03:05 209 15.6
2015-Apr-18 03:00 209 15.6
2015-Apr-18 02:55 209 15.6
2015-Apr-18 02:50 209 15.6
2015-Apr-18 02:45 209 15.6
2015-Apr-18 02:40 209 15.6
2015-Apr-18 02:35 209 0 gusting 1 15.6
2015-Apr-18 02:30 209 15.6
2015-Apr-18 02:25 209 15.6
2015-Apr-18 02:20 209 15.6
2015-Apr-18 02:15 209 15.6
2015-Apr-18 02:10 209 15.6
2015-Apr-18 02:05 209 15.6
2015-Apr-18 02:00 209 15.6
2015-Apr-18 01:55 209 16.1
2015-Apr-18 01:50 209 16.1
2015-Apr-18 01:45 209 0 gusting 2 16.1
2015-Apr-18 01:40 209 1 gusting 2 16.1
2015-Apr-18 01:35 209 0 gusting 2 15.6
2015-Apr-18 01:30 209 15.6
2015-Apr-18 01:25 209 15.6
2015-Apr-18 01:20 209 15.6
2015-Apr-18 01:15 209 16.1
2015-Apr-18 01:10 209 16.1
2015-Apr-18 01:05 209 16.1
2015-Apr-18 01:00 209 16.1
2015-Apr-18 00:55 209 16.1
2015-Apr-18 00:50 209 16.1
2015-Apr-18 00:45 209 16.1
2015-Apr-18 00:40 209 16.1
2015-Apr-18 00:35 209 16.1
2015-Apr-18 00:30 209 16.1
2015-Apr-18 00:25 209 16.7
2015-Apr-18 00:20 209 16.7
2015-Apr-18 00:15 209 16.7
2015-Apr-18 00:10 209 16.7
2015-Apr-18 00:05 209 16.7
2015-Apr-18 00:00 209 16.7
2015-Apr-17 23:55 209 16.7
2015-Apr-17 23:50 209 17.2
2015-Apr-17 23:45 209 17.2
2015-Apr-17 23:40 209 17.2
2015-Apr-17 23:35 209 17.2
2015-Apr-17 23:30 209 1 gusting 2 17.2
2015-Apr-17 23:25 209 0 gusting 2 17.2
2015-Apr-17 23:20 209 17.8
2015-Apr-17 23:15 209 17.8
2015-Apr-17 23:10 209 17.8
2015-Apr-17 23:05 209 0 gusting 2 17.8
2015-Apr-17 23:00 209 17.8
2015-Apr-17 22:55 209 2 gusting 5 17.8
2015-Apr-17 22:50 246 1 gusting 2 17.8
2015-Apr-17 22:45 209 2 gusting 5 17.8
2015-Apr-17 22:40 167 17.8
2015-Apr-17 22:35 230 17.8
2015-Apr-17 22:30 230 2 gusting 4 17.8
2015-Apr-17 22:25 207 17.8
2015-Apr-17 22:20 207 17.8
2015-Apr-17 22:15 207 17.8
2015-Apr-17 22:10 207 17.8
2015-Apr-17 22:05 207 17.8
2015-Apr-17 22:00 207 17.8
2015-Apr-17 21:55 085 0 gusting 1 17.8
2015-Apr-17 21:50 039 1 gusting 2 17.8
2015-Apr-17 21:45 122 4 gusting 4 17.8
2015-Apr-17 21:40 120 4 gusting 4 17.8
2015-Apr-17 21:35 113 2 gusting 5 17.8
2015-Apr-17 21:30 120 3 gusting 4 17.8
2015-Apr-17 21:20 119 0 gusting 2 18.3
2015-Apr-17 21:15 076 18.3
2015-Apr-17 21:10 098 1 gusting 4 18.3
2015-Apr-17 21:05 092 1 gusting 2 18.3
2015-Apr-17 21:00 092 0 gusting 2 18.3
2015-Apr-17 20:55 125 0 gusting 2 18.3
2015-Apr-17 20:50 124 0 gusting 4 18.3
2015-Apr-17 20:45 080 2 gusting 6 18.3
2015-Apr-17 20:40 075 4 gusting 6 18.9
2015-Apr-17 20:35 089 2 gusting 5 18.9
2015-Apr-17 20:30 107 2 gusting 6 18.9
2015-Apr-17 20:25 009 0 gusting 2 18.9
2015-Apr-17 20:20 009 1 gusting 2 18.9
2015-Apr-17 20:15 005 1 gusting 2 18.9
2015-Apr-17 20:10 262 18.9
2015-Apr-17 20:05 262 0 gusting 1 18.9
2015-Apr-17 20:00 262 18.9
2015-Apr-17 19:55 262 0 gusting 2 18.9
2015-Apr-17 19:50 262 18.9
2015-Apr-17 19:45 262 1 gusting 5 19.4
2015-Apr-17 19:40 262 2 gusting 5 19.4
2015-Apr-17 19:35 246 1 gusting 5 19.4
2015-Apr-17 19:30 284 4 gusting 6 19.4
2015-Apr-17 19:25 284 2 gusting 5 19.4
2015-Apr-17 19:20 286 2 gusting 4 19.4
2015-Apr-17 19:15 249 2 gusting 6 19.4
2015-Apr-17 19:10 248 4 gusting 6 19.4
2015-Apr-17 19:05 257 4 gusting 6 20.0
2015-Apr-17 19:00 249 4 gusting 6 20.0
2015-Apr-17 18:55 237 5 gusting 7 20.0
2015-Apr-17 18:50 258 4 gusting 7 20.0
2015-Apr-17 18:45 258 4 gusting 10 20.0
2015-Apr-17 18:40 251 7 gusting 10 20.0
2015-Apr-17 18:35 252 5 gusting 11 20.6
2015-Apr-17 18:30 266 4 gusting 7 20.6
2015-Apr-17 18:25 228 6 gusting 10 20.6
2015-Apr-17 18:20 242 6 gusting 10 20.6
2015-Apr-17 18:15 240 6 gusting 8 20.6
2015-Apr-17 18:10 253 5 gusting 10 20.6
2015-Apr-17 18:05 264 6 gusting 8 21.1
2015-Apr-17 18:00 260 5 gusting 10 21.1
2015-Apr-17 17:55 252 6 gusting 7 21.1
2015-Apr-17 17:50 254 3 gusting 7 21.1
2015-Apr-17 17:45 247 6 gusting 10 21.1
2015-Apr-17 17:40 228 5 gusting 7 21.1
2015-Apr-17 17:35 254 6 gusting 7 21.1
2015-Apr-17 17:30 255 6 gusting 10 21.7
2015-Apr-17 17:25 243 5 gusting 7 21.7
2015-Apr-17 17:20 219 5 gusting 8 21.7
2015-Apr-17 17:15 240 4 gusting 8 21.7
2015-Apr-17 17:10 262 5 gusting 8 21.1
2015-Apr-17 17:05 236 3 gusting 10 21.1
2015-Apr-17 17:00 233 5 gusting 6 21.7
2015-Apr-17 16:55 236 5 gusting 10 21.7
2015-Apr-17 16:50 256 6 gusting 10 21.7
2015-Apr-17 16:45 263 5 gusting 10 22.2
2015-Apr-17 16:40 247 4 gusting 8 21.7
2015-Apr-17 16:35 233 5 gusting 10 21.7
2015-Apr-17 16:30 235 2 gusting 12 21.7
2015-Apr-17 16:25 257 5 gusting 12 21.1
2015-Apr-17 16:20 246 6 gusting 10 21.7
2015-Apr-17 16:15 235 4 gusting 10 21.1
2015-Apr-17 16:10 270 7 gusting 13 21.1
2015-Apr-17 16:05 244 8 gusting 12 21.1
2015-Apr-17 16:00 226 6 gusting 12 21.7
2015-Apr-17 15:55 241 6 gusting 12 21.7
2015-Apr-17 15:50 276 5 gusting 8 21.7
2015-Apr-17 15:45 211 4 gusting 12 21.7
2015-Apr-17 15:40 225 5 gusting 14 21.7
2015-Apr-17 15:35 268 8 gusting 13 21.7
2015-Apr-17 15:30 261 6 gusting 12 21.7
2015-Apr-17 15:25 232 8 gusting 15 22.2
2015-Apr-17 15:20 258 6 gusting 13 21.7
2015-Apr-17 15:15 251 8 gusting 13 21.7
2015-Apr-17 15:10 243 8 gusting 19 22.2
2015-Apr-17 15:05 251 7 gusting 13 22.2
2015-Apr-17 15:00 236 8 gusting 13 22.2
2015-Apr-17 14:55 243 8 gusting 13 22.2
2015-Apr-17 14:50 262 9 gusting 14 22.2
2015-Apr-17 14:45 249 10 gusting 15 21.7
2015-Apr-17 14:40 254 10 gusting 18 22.2
2015-Apr-17 14:35 245 8 gusting 14 22.2
2015-Apr-17 14:30 207 8 gusting 12 22.8
2015-Apr-17 14:25 239 6 gusting 11 22.8
2015-Apr-17 14:20 256 6 gusting 12 22.8
2015-Apr-17 14:15 235 6 gusting 10 22.8
2015-Apr-17 14:10 256 5 gusting 10 22.8
2015-Apr-17 14:05 243 7 gusting 10 22.8
2015-Apr-17 14:00 283 7 gusting 11 22.8
2015-Apr-17 13:55 270 2 gusting 8 22.8
2015-Apr-17 13:50 267 5 gusting 10 22.8
2015-Apr-17 13:45 208 2 gusting 6 22.8
2015-Apr-17 13:40 200 4 gusting 11 22.8
2015-Apr-17 13:35 242 6 gusting 11 22.2
2015-Apr-17 13:30 242 6 gusting 10 22.2
2015-Apr-17 13:25 282 6 gusting 12 22.2
2015-Apr-17 13:20 257 7 gusting 12 22.2
2015-Apr-17 13:15 273 5 gusting 10 22.2
2015-Apr-17 13:10 246 3 gusting 11 22.2
2015-Apr-17 13:05 261 5 gusting 10 22.2
2015-Apr-17 13:00 251 4 gusting 7 22.2
2015-Apr-17 12:55 273 6 gusting 10 22.2
2015-Apr-17 12:50 277 4 gusting 11 21.7
2015-Apr-17 12:45 240 5 gusting 10 21.1
2015-Apr-17 12:40 272 6 gusting 10 21.1
2015-Apr-17 12:35 252 5 gusting 8 21.7
2015-Apr-17 12:30 272 7 gusting 11 21.1
2015-Apr-17 12:25 238 7 gusting 13 21.7
2015-Apr-17 12:20 240 6 gusting 13 21.7
2015-Apr-17 12:15 253 5 gusting 12 21.1
2015-Apr-17 12:10 249 6 gusting 12 21.1
2015-Apr-17 12:05 239 7 gusting 10 21.7
2015-Apr-17 12:00 245 5 gusting 10 21.7
2015-Apr-17 11:55 231 7 gusting 12 21.7
2015-Apr-17 11:50 243 6 gusting 11 21.7
2015-Apr-17 11:45 196 5 gusting 11 21.7
2015-Apr-17 11:40 165 5 gusting 7 21.7
2015-Apr-17 11:35 236 5 gusting 10 21.1
2015-Apr-17 11:30 254 7 gusting 11 21.7
2015-Apr-17 11:25 255 6 gusting 8 21.1
2015-Apr-17 11:20 246 5 gusting 12 21.1
2015-Apr-17 11:15 249 7 gusting 13 21.7
2015-Apr-17 11:10 216 6 gusting 17 21.7
2015-Apr-17 11:05 238 11 gusting 18 21.7
2015-Apr-17 11:00 240 5 gusting 13 22.2
2015-Apr-17 10:55 177 5 gusting 10 22.2
2015-Apr-17 10:50 100 3 gusting 13 22.2
2015-Apr-17 10:45 096 8 gusting 19 22.2
2015-Apr-17 10:40 119 11 gusting 19 21.7
2015-Apr-17 10:35 172 2 gusting 7 21.1
2015-Apr-17 10:30 247 4 gusting 7 21.7
2015-Apr-17 10:25 235 5 gusting 8 21.7
2015-Apr-17 10:20 313 1 gusting 5 21.7
2015-Apr-17 10:15 348 1 gusting 2 21.7
2015-Apr-17 10:10 067 1 gusting 2 21.1
2015-Apr-17 10:05 164 1 gusting 4 21.1
2015-Apr-17 10:00 147 3 gusting 6 21.1
2015-Apr-17 09:55 154 4 gusting 6 21.1
2015-Apr-17 09:50 252 0 gusting 2 20.6
2015-Apr-17 09:45 264 2 gusting 5 21.1
2015-Apr-17 09:40 165 2 gusting 6 21.1
2015-Apr-17 09:35 109 3 gusting 6 21.1
2015-Apr-17 09:30 264 1 gusting 2 20.6
2015-Apr-17 09:20 035 1 gusting 5 20.0
2015-Apr-17 09:15 273 19.4
2015-Apr-17 09:10 273 1 gusting 2 19.4
2015-Apr-17 09:05 268 4 gusting 6 19.4
2015-Apr-17 09:00 290 2 gusting 6 19.4
2015-Apr-17 08:55 259 3 gusting 6 20.0
2015-Apr-17 08:50 340 0 gusting 5 20.0
2015-Apr-17 08:45 281 0 gusting 1 20.0
2015-Apr-17 08:40 281 20.0
2015-Apr-17 08:35 281 1 gusting 2 20.0
2015-Apr-17 08:30 245 20.0
2015-Apr-17 08:25 245 0 gusting 1 19.4
2015-Apr-17 08:20 245 19.4
2015-Apr-17 08:15 285 0 gusting 2 18.9
2015-Apr-17 08:10 285 1 gusting 2 18.9
2015-Apr-17 08:05 277 1 gusting 2 18.9
2015-Apr-17 08:00 345 0 gusting 1 18.9
2015-Apr-17 07:55 345 18.3
2015-Apr-17 07:50 345 18.3
2015-Apr-17 07:45 345 18.3
2015-Apr-17 07:40 345 18.3
2015-Apr-17 07:35 345 17.8
2015-Apr-17 07:30 345 17.8
2015-Apr-17 07:25 345 17.2
2015-Apr-17 07:20 345 16.7
2015-Apr-17 07:15 345 16.7
2015-Apr-17 07:10 345 1 gusting 4 16.1
2015-Apr-17 07:05 354 2 gusting 4 16.1
2015-Apr-17 07:00 352 2 gusting 5 16.1
2015-Apr-17 06:55 350 3 gusting 5 16.1
2015-Apr-17 06:50 342 0 gusting 2 16.1
2015-Apr-17 06:45 002 1 gusting 2 16.1
2015-Apr-17 06:40 022 1 gusting 2 16.1
2015-Apr-17 06:35 022 0 gusting 2 16.1
2015-Apr-17 06:30 022 1 gusting 2 16.1
2015-Apr-17 06:25 022 0 gusting 2 16.1
2015-Apr-17 06:20 022 1 gusting 2 16.1
2015-Apr-17 06:15 019 2 gusting 4 16.1
2015-Apr-17 06:10 086 1 gusting 4 16.1
2015-Apr-17 06:05 086 2 gusting 5 16.1
2015-Apr-17 06:00 086 1 gusting 4 16.1
2015-Apr-17 05:55 086 2 gusting 4 16.1
2015-Apr-17 05:50 086 0 gusting 2 16.1
2015-Apr-17 05:45 086 1 gusting 4 16.1
2015-Apr-17 05:40 086 2 gusting 4 16.1
2015-Apr-17 05:35 086 2 gusting 4 16.1
2015-Apr-17 05:30 086 1 gusting 4 16.1
2015-Apr-17 05:25 088 2 gusting 4 16.1
2015-Apr-17 05:20 068 1 gusting 4 16.1
2015-Apr-17 05:15 077 3 gusting 5 16.1
2015-Apr-17 05:10 080 2 gusting 4 16.1
2015-Apr-17 05:05 068 2 gusting 6 16.1
2015-Apr-17 05:00 081 2 gusting 5 16.1
2015-Apr-17 04:55 073 2 gusting 6 16.1
2015-Apr-17 04:50 091 2 gusting 5 16.1
2015-Apr-17 04:45 062 1 gusting 5 16.1
2015-Apr-17 04:40 046 0 gusting 1 16.1
2015-Apr-17 04:35 046 16.1
2015-Apr-17 04:30 046 16.1
2015-Apr-17 04:25 046 2 gusting 4 16.1
2015-Apr-17 04:20 034 1 gusting 2 16.1
2015-Apr-17 04:15 045 1 gusting 4 16.1
2015-Apr-17 04:10 009 2 gusting 4 16.1
2015-Apr-17 04:05 052 1 gusting 4 16.1
2015-Apr-17 04:00 104 16.1